Time;durP1;ratioP1;P1;durP2;ratioP2;P2;SDS_P1;SDS_P2;PMS_P1;PMS_P2;Temp;Humidity;BMP_temperature;BMP_pressure;BME280_temperature;BME280_humidity;BME280_pressure;Samples;Min_cycle;Max_cycle;Signal;HPM_P1;HPM_P2
2022/02/06 00:01:46;;;;;;;130.23;72.05;;;;;;;;;;6255655;28;20071;-64
2022/02/06 00:04:48;;;;;;;135.65;72.13;;;;;;;;;;6260834;28;20045;-64
2022/02/06 00:07:51;;;;;;;142.27;76.00;;;;;;;;;;6259356;28;20370;-63
2022/02/06 00:10:53;;;;;;;133.70;75.03;;;;;;;;;;6256558;28;20406;-64
2022/02/06 00:13:56;;;;;;;144.40;76.05;;;;;;;;;;6258515;28;20118;-64
2022/02/06 00:16:58;;;;;;;143.95;76.63;;;;;;;;;;6253876;28;20132;-64
2022/02/06 00:20:00;;;;;;;141.18;76.55;;;;;;;;;;6263570;28;20052;-64
2022/02/06 00:23:07;;;;;;;149.75;78.50;;;;;;;;;;6254868;28;20045;-64
2022/02/06 00:26:15;;;;;;;138.00;73.15;;;;;;;;;;6261194;28;20092;-64
2022/02/06 00:29:22;;;;;;;135.48;75.65;;;;;;;;;;6257893;28;20057;-64
2022/02/06 00:32:32;;;;;;;147.88;76.75;;;;;;;;;;6256745;28;20052;-65
2022/02/06 00:39:04;;;;;;;140.68;76.03;;;;;;;;;;6257259;28;20385;-64
2022/02/06 00:42:07;;;;;;;137.05;75.50;;;;;;;;;;6258405;28;20196;-64
2022/02/06 00:45:09;;;;;;;137.35;75.38;;;;;;;;;;6249018;28;20143;-64
2022/02/06 00:48:10;;;;;;;147.30;74.88;;;;;;;;;;6249313;28;20144;-64
2022/02/06 00:51:16;;;;;;;146.50;74.75;;;;;;;;;;6257085;28;20052;-64
2022/02/06 00:54:19;;;;;;;137.85;73.43;;;;;;;;;;6250571;28;20080;-64
2022/02/06 00:57:20;;;;;;;132.30;73.85;;;;;;;;;;6255159;28;20509;-64
2022/02/06 01:00:23;;;;;;;130.48;72.13;;;;;;;;;;6254753;28;20128;-64
2022/02/06 01:03:25;;;;;;;132.70;72.72;;;;;;;;;;6249156;28;20088;-64
2022/02/06 01:06:32;;;;;;;136.80;76.25;;;;;;;;;;6247698;28;20191;-64
2022/02/06 01:09:35;;;;;;;140.85;74.18;;;;;;;;;;6254064;28;20052;-64
2022/02/06 01:12:41;;;;;;;137.27;74.35;;;;;;;;;;6256563;28;20049;-67
2022/02/06 01:15:49;;;;;;;140.60;75.18;;;;;;;;;;6256838;28;20065;-63
2022/02/06 01:18:56;;;;;;;146.73;77.10;;;;;;;;;;6258214;28;20497;-64
2022/02/06 01:22:02;;;;;;;142.40;74.50;;;;;;;;;;6256099;28;21094;-64
2022/02/06 01:25:11;;;;;;;134.05;73.45;;;;;;;;;;6260732;28;20045;-64
2022/02/06 01:28:16;;;;;;;147.30;76.03;;;;;;;;;;6252058;28;20413;-65
2022/02/06 01:31:32;;;;;;;145.55;73.68;;;;;;;;;;6257357;28;20048;-65
2022/02/06 01:34:42;;;;;;;142.77;76.47;;;;;;;;;;6260698;28;20045;-65
2022/02/06 01:37:49;;;;;;;145.73;76.47;;;;;;;;;;6256749;28;20457;-64
2022/02/06 01:41:02;;;;;;;140.63;74.32;;;;;;;;;;6255423;28;20073;-66
2022/02/06 01:44:08;;;;;;;131.68;72.00;;;;;;;;;;6260834;28;20134;-65
2022/02/06 02:00:29;;;;;;;134.30;73.38;;;;;;;;;;6251304;28;20485;-64
2022/02/06 02:01:12;;;;;;;134.68;72.05;;;;;;;;;;6254725;28;20041;-63
2022/02/06 02:04:19;;;;;;;139.93;75.90;;;;;;;;;;6253596;28;20124;-64
2022/02/06 02:07:56;;;;;;;135.15;71.63;;;;;;;;;;6255851;28;20524;-64
2022/02/06 02:14:33;;;;;;;129.90;70.28;;;;;;;;;;6235617;28;20449;-64
2022/02/06 02:18:00;;;;;;;131.63;74.03;;;;;;;;;;6255328;28;20107;-64
2022/02/06 02:21:28;;;;;;;131.38;69.80;;;;;;;;;;6252682;28;20145;-64
2022/02/06 02:25:14;;;;;;;137.85;70.93;;;;;;;;;;6256333;28;20072;-64
2022/02/06 02:28:43;;;;;;;130.73;70.13;;;;;;;;;;6261230;28;20049;-63
2022/02/06 02:45:12;;;;;;;125.43;69.43;;;;;;;;;;6248773;28;20041;-63
2022/02/06 02:48:17;;;;;;;126.07;68.07;;;;;;;;;;6255854;28;20048;-63
2022/02/06 02:51:21;;;;;;;127.05;68.40;;;;;;;;;;6251946;28;20075;-64
2022/02/06 02:54:27;;;;;;;124.30;70.07;;;;;;;;;;6255313;28;20049;-64
2022/02/06 02:57:34;;;;;;;132.40;70.13;;;;;;;;;;6255193;28;20068;-63
2022/02/06 03:00:41;;;;;;;135.25;71.53;;;;;;;;;;6249471;28;20508;-64
2022/02/06 03:03:43;;;;;;;142.93;74.05;;;;;;;;;;6253647;28;20052;-63
2022/02/06 03:06:45;;;;;;;128.35;66.85;;;;;;;;;;6251633;28;20125;-63
2022/02/06 03:09:49;;;;;;;133.55;70.30;;;;;;;;;;6257480;28;20509;-64
2022/02/06 03:12:52;;;;;;;132.32;66.45;;;;;;;;;;6258214;28;20041;-64
2022/02/06 03:16:03;;;;;;;127.53;67.70;;;;;;;;;;6254827;28;20051;-63
2022/02/06 03:19:09;;;;;;;124.45;68.97;;;;;;;;;;6256211;28;20041;-63
2022/02/06 03:22:19;;;;;;;128.00;67.78;;;;;;;;;;6255500;28;20049;-63
2022/02/06 03:25:24;;;;;;;127.60;67.22;;;;;;;;;;6257071;28;20044;-63
2022/02/06 03:28:26;;;;;;;127.97;68.03;;;;;;;;;;6255965;28;20126;-63
2022/02/06 03:31:28;;;;;;;126.60;67.22;;;;;;;;;;6248367;28;20549;-64
2022/02/06 03:34:29;;;;;;;126.55;68.15;;;;;;;;;;6256950;28;20077;-64
2022/02/06 03:37:31;;;;;;;122.45;67.47;;;;;;;;;;6250898;28;20492;-64
2022/02/06 03:40:40;;;;;;;130.05;68.75;;;;;;;;;;6250497;28;20048;-63
2022/02/06 03:43:51;;;;;;;131.02;67.50;;;;;;;;;;6257862;28;20049;-64
2022/02/06 03:47:02;;;;;;;124.80;66.65;;;;;;;;;;6258407;28;20052;-63
2022/02/06 03:50:05;;;;;;;130.15;66.82;;;;;;;;;;6252260;28;20159;-63
2022/02/06 03:53:06;;;;;;;136.27;67.78;;;;;;;;;;6257206;28;20040;-64
2022/02/06 03:56:10;;;;;;;132.38;71.00;;;;;;;;;;6246150;28;20168;-63
2022/02/06 03:59:11;;;;;;;122.47;66.57;;;;;;;;;;6250314;28;20413;-63
2022/02/06 04:02:14;;;;;;;133.55;70.43;;;;;;;;;;6255435;28;20072;-63
2022/02/06 04:05:16;;;;;;;120.13;67.30;;;;;;;;;;6257141;28;20403;-63
2022/02/06 04:08:19;;;;;;;127.50;68.13;;;;;;;;;;6259842;28;20583;-63
2022/02/06 04:11:32;;;;;;;120.85;67.25;;;;;;;;;;6258967;28;20049;-63
2022/02/06 04:14:42;;;;;;;121.03;65.47;;;;;;;;;;6258656;28;20052;-64
2022/02/06 04:17:48;;;;;;;121.93;66.35;;;;;;;;;;6252013;28;20128;-64
2022/02/06 04:20:50;;;;;;;116.90;63.33;;;;;;;;;;6260225;28;20107;-64
2022/02/06 04:23:52;;;;;;;125.93;65.10;;;;;;;;;;6258661;28;20052;-64
2022/02/06 04:26:55;;;;;;;125.43;67.53;;;;;;;;;;6255975;28;20504;-63
2022/02/06 04:29:57;;;;;;;118.88;64.78;;;;;;;;;;6253844;28;20077;-64
2022/02/06 04:32:59;;;;;;;117.95;65.72;;;;;;;;;;6255174;28;20084;-63
2022/02/06 04:36:02;;;;;;;116.85;64.35;;;;;;;;;;6251627;28;20575;-63
2022/02/06 04:39:14;;;;;;;119.38;62.63;;;;;;;;;;6254171;28;20045;-64
2022/02/06 04:42:27;;;;;;;113.07;60.67;;;;;;;;;;6252515;28;20049;-63
2022/02/06 04:49:18;;;;;;;110.03;60.25;;;;;;;;;;6235387;28;20034;-63
2022/02/06 05:13:11;;;;;;;119.93;61.45;;;;;;;;;;6251267;28;20049;-63
2022/02/06 05:16:21;;;;;;;115.05;58.65;;;;;;;;;;6256232;28;20055;-63
2022/02/06 05:26:26;;;;;;;101.65;58.35;;;;;;;;;;6226907;28;20100;-64
2022/02/06 05:29:38;;;;;;;108.35;59.33;;;;;;;;;;6253734;28;20045;-63
2022/02/06 05:32:57;;;;;;;105.82;57.08;;;;;;;;;;6248467;28;20051;-63
2022/02/06 05:35:59;;;;;;;104.47;57.83;;;;;;;;;;6254050;28;20095;-63
2022/02/06 05:39:00;;;;;;;111.57;58.15;;;;;;;;;;6254569;28;20115;-64
2022/02/06 05:42:02;;;;;;;105.05;58.17;;;;;;;;;;6255439;28;20195;-64
2022/02/06 05:45:05;;;;;;;104.38;55.75;;;;;;;;;;6248800;28;20041;-63
2022/02/06 05:48:08;;;;;;;102.38;56.55;;;;;;;;;;6249989;28;20046;-64
2022/02/06 05:51:09;;;;;;;105.28;56.28;;;;;;;;;;6245264;28;20655;-62
2022/02/06 05:54:11;;;;;;;96.78;55.42;;;;;;;;;;6244658;28;20128;-64
2022/02/06 05:57:13;;;;;;;101.40;55.13;;;;;;;;;;6248375;28;20045;-63
2022/02/06 06:00:15;;;;;;;95.68;54.47;;;;;;;;;;6256528;28;20096;-63
2022/02/06 06:03:18;;;;;;;98.18;54.10;;;;;;;;;;6259172;28;20116;-65
2022/02/06 06:06:20;;;;;;;99.18;55.33;;;;;;;;;;6256912;28;20045;-65
2022/02/06 06:09:22;;;;;;;99.82;53.58;;;;;;;;;;6257998;28;20041;-64
2022/02/06 06:12:23;;;;;;;94.93;54.83;;;;;;;;;;6259040;28;20664;-63
2022/02/06 06:15:25;;;;;;;91.20;53.13;;;;;;;;;;6260193;28;20492;-63
2022/02/06 06:18:28;;;;;;;94.18;52.40;;;;;;;;;;6258807;28;20137;-63
2022/02/06 06:21:34;;;;;;;94.88;54.17;;;;;;;;;;6260341;28;20180;-64
2022/02/06 06:24:40;;;;;;;93.43;54.10;;;;;;;;;;6260857;28;20498;-63
2022/02/06 06:27:42;;;;;;;91.43;53.95;;;;;;;;;;6258079;28;20045;-64
2022/02/06 06:30:43;;;;;;;86.47;52.28;;;;;;;;;;6256964;28;20286;-63
2022/02/06 06:33:46;;;;;;;93.43;54.05;;;;;;;;;;6264947;28;20080;-63
2022/02/06 06:36:49;;;;;;;95.45;53.05;;;;;;;;;;6250540;28;20119;-63
2022/02/06 06:39:51;;;;;;;90.75;52.10;;;;;;;;;;6250728;28;20094;-63
2022/02/06 06:42:52;;;;;;;93.95;55.78;;;;;;;;;;6251590;28;20649;-65
2022/02/06 06:45:54;;;;;;;104.40;58.83;;;;;;;;;;6259753;28;20057;-65
2022/02/06 06:48:57;;;;;;;117.25;61.08;;;;;;;;;;6254560;28;20501;-66
2022/02/06 06:51:58;;;;;;;114.10;62.72;;;;;;;;;;6257035;28;20096;-63
2022/02/06 06:55:02;;;;;;;114.38;63.00;;;;;;;;;;6259270;28;20072;-63
2022/02/06 06:58:10;;;;;;;111.72;63.42;;;;;;;;;;6257998;28;20064;-63
2022/02/06 07:01:41;;;;;;;121.57;64.47;;;;;;;;;;6254031;28;20477;-63
2022/02/06 07:04:44;;;;;;;122.72;64.55;;;;;;;;;;6248578;28;20438;-63
2022/02/06 07:07:45;;;;;;;119.57;65.30;;;;;;;;;;6250816;28;20037;-62
2022/02/06 07:10:47;;;;;;;119.20;63.47;;;;;;;;;;6256821;28;20130;-63
2022/02/06 07:13:49;;;;;;;117.90;64.57;;;;;;;;;;6257774;28;20053;-63
2022/02/06 07:16:50;;;;;;;126.85;66.15;;;;;;;;;;6256717;28;20259;-62
2022/02/06 07:19:53;;;;;;;128.02;67.40;;;;;;;;;;6257459;28;20064;-65
2022/02/06 07:22:55;;;;;;;131.60;67.88;;;;;;;;;;6250387;28;20042;-63
2022/02/06 07:26:01;;;;;;;127.57;68.25;;;;;;;;;;6258015;28;20096;-63
2022/02/06 07:29:02;;;;;;;140.70;68.22;;;;;;;;;;6255973;28;20041;-62
2022/02/06 07:32:04;;;;;;;139.00;71.90;;;;;;;;;;6254442;28;20516;-63
2022/02/06 07:35:11;;;;;;;139.65;73.43;;;;;;;;;;6253023;28;20077;-63
2022/02/06 07:38:14;;;;;;;133.93;69.18;;;;;;;;;;6253578;28;20053;-63
2022/02/06 07:41:16;;;;;;;147.10;71.93;;;;;;;;;;6254135;28;20056;-62
2022/02/06 07:44:18;;;;;;;141.10;70.57;;;;;;;;;;6251868;28;20072;-65
2022/02/06 07:47:22;;;;;;;147.43;72.72;;;;;;;;;;6256696;28;20394;-65
2022/02/06 07:50:25;;;;;;;137.25;71.60;;;;;;;;;;6249617;28;20057;-65
2022/02/06 07:53:26;;;;;;;128.35;67.43;;;;;;;;;;6255886;28;20442;-65
2022/02/06 07:56:28;;;;;;;140.48;70.88;;;;;;;;;;6258984;28;20056;-66
2022/02/06 07:59:30;;;;;;;143.65;71.50;;;;;;;;;;6264076;28;20048;-65
2022/02/06 08:02:31;;;;;;;107.18;58.75;;;;;;;;;;6256855;28;20049;-62
2022/02/06 08:05:34;;;;;;;97.70;55.40;;;;;;;;;;6255435;28;20275;-62
2022/02/06 08:08:36;;;;;;;95.70;53.42;;;;;;;;;;6253974;28;20336;-64
2022/02/06 08:11:44;;;;;;;124.60;66.63;;;;;;;;;;6253720;28;20041;-64
2022/02/06 08:14:54;;;;;;;120.90;62.90;;;;;;;;;;6252585;28;20364;-61
2022/02/06 08:17:56;;;;;;;114.10;60.78;;;;;;;;;;6261174;28;20128;-62
2022/02/06 08:20:59;;;;;;;140.13;68.55;;;;;;;;;;6257989;28;20132;-63
2022/02/06 08:24:00;;;;;;;136.35;67.70;;;;;;;;;;6262511;28;20103;-64
2022/02/06 08:27:02;;;;;;;140.88;69.25;;;;;;;;;;6263270;28;20045;-62
2022/02/06 08:30:05;;;;;;;143.98;68.13;;;;;;;;;;6256254;28;20052;-63
2022/02/06 08:33:06;;;;;;;139.90;69.05;;;;;;;;;;6252005;28;20446;-64
2022/02/06 08:36:09;;;;;;;138.18;65.35;;;;;;;;;;6252425;28;20173;-64
2022/02/06 08:39:12;;;;;;;132.73;65.38;;;;;;;;;;6253132;28;20052;-64
2022/02/06 08:42:14;;;;;;;139.75;67.28;;;;;;;;;;6250740;28;20108;-64
2022/02/06 08:45:17;;;;;;;131.98;66.68;;;;;;;;;;6255850;28;20183;-64
2022/02/06 08:48:20;;;;;;;138.63;68.10;;;;;;;;;;6252035;28;20407;-64
2022/02/06 08:51:23;;;;;;;119.57;63.03;;;;;;;;;;6254321;28;20057;-64
2022/02/06 08:54:29;;;;;;;122.00;62.53;;;;;;;;;;6255177;28;20140;-64
2022/02/06 08:57:30;;;;;;;119.38;63.63;;;;;;;;;;6248883;28;20059;-63
2022/02/06 09:00:32;;;;;;;120.53;63.33;;;;;;;;;;6254265;28;20504;-65
2022/02/06 09:03:34;;;;;;;110.18;60.25;;;;;;;;;;6244937;28;20188;-65
2022/02/06 09:06:37;;;;;;;111.35;62.17;;;;;;;;;;6250555;28;20065;-62
2022/02/06 09:09:44;;;;;;;107.33;59.83;;;;;;;;;;6251648;28;20053;-62
2022/02/06 09:12:50;;;;;;;115.38;61.67;;;;;;;;;;6252658;28;20056;-63
2022/02/06 09:15:52;;;;;;;115.63;60.38;;;;;;;;;;6251450;28;20075;-63
2022/02/06 09:18:53;;;;;;;120.85;63.03;;;;;;;;;;6252954;28;20509;-63
2022/02/06 09:21:59;;;;;;;117.32;61.97;;;;;;;;;;6249822;28;20146;-63
2022/02/06 09:25:00;;;;;;;125.25;63.42;;;;;;;;;;6254917;28;20049;-63
2022/02/06 09:28:02;;;;;;;114.85;58.15;;;;;;;;;;6250282;28;20576;-63
2022/02/06 09:31:04;;;;;;;117.25;59.97;;;;;;;;;;6256774;28;20134;-62
2022/02/06 09:37:09;;;;;;;128.25;60.75;;;;;;;;;;6263860;28;20094;-62
2022/02/06 09:40:14;;;;;;;127.50;61.50;;;;;;;;;;6261173;28;20065;-62
2022/02/06 09:43:15;;;;;;;130.27;61.78;;;;;;;;;;6262143;28;20055;-62
2022/02/06 09:46:17;;;;;;;129.98;62.92;;;;;;;;;;6251957;28;20132;-65
2022/02/06 09:49:22;;;;;;;131.93;63.83;;;;;;;;;;6254420;28;20120;-63
2022/02/06 09:52:26;;;;;;;127.40;61.67;;;;;;;;;;6252896;28;20049;-63
2022/02/06 09:55:28;;;;;;;151.35;69.95;;;;;;;;;;6259345;28;20127;-63
2022/02/06 10:02:01;;;;;;;136.60;63.85;;;;;;;;;;6188868;28;20046;-63
2022/02/06 10:05:03;;;;;;;136.00;65.88;;;;;;;;;;6258100;28;20134;-65
2022/02/06 10:08:14;;;;;;;134.45;62.63;;;;;;;;;;6254799;28;20252;-64
2022/02/06 10:11:16;;;;;;;139.85;62.85;;;;;;;;;;6255801;28;20037;-64
2022/02/06 10:14:18;;;;;;;133.32;63.28;;;;;;;;;;6252217;28;20107;-65
2022/02/06 10:17:23;;;;;;;130.27;61.72;;;;;;;;;;6251533;28;20508;-62
2022/02/06 10:20:30;;;;;;;134.55;63.30;;;;;;;;;;6256080;28;20506;-64
2022/02/06 10:23:38;;;;;;;129.10;61.47;;;;;;;;;;6256682;28;20565;-64
2022/02/06 10:26:45;;;;;;;138.20;62.10;;;;;;;;;;6258117;28;20049;-64
2022/02/06 10:29:56;;;;;;;140.77;66.97;;;;;;;;;;6257806;28;20063;-63
2022/02/06 10:32:58;;;;;;;140.13;65.45;;;;;;;;;;6257776;28;20069;-64
2022/02/06 10:36:00;;;;;;;130.38;61.65;;;;;;;;;;6255551;28;20504;-63
2022/02/06 10:39:05;;;;;;;134.98;63.13;;;;;;;;;;6252720;28;20624;-64
2022/02/06 10:42:20;;;;;;;137.07;62.88;;;;;;;;;;6257310;28;20128;-64
2022/02/06 10:45:25;;;;;;;141.40;63.50;;;;;;;;;;6255142;28;20518;-64
2022/02/06 10:48:26;;;;;;;133.35;60.17;;;;;;;;;;6253452;28;20045;-64
2022/02/06 10:51:43;;;;;;;136.93;60.08;;;;;;;;;;6254988;28;20053;-64
2022/02/06 10:54:46;;;;;;;136.90;59.28;;;;;;;;;;6258698;28;20041;-64
2022/02/06 10:57:55;;;;;;;138.13;61.72;;;;;;;;;;6250393;28;20525;-65
2022/02/06 11:00:57;;;;;;;132.10;57.40;;;;;;;;;;6253505;28;20344;-64
2022/02/06 11:04:16;;;;;;;133.48;57.85;;;;;;;;;;6248101;28;20412;-65
2022/02/06 11:07:19;;;;;;;122.65;55.58;;;;;;;;;;6260664;28;20115;-65
2022/02/06 11:10:24;;;;;;;126.18;54.67;;;;;;;;;;6255278;28;20496;-65
2022/02/06 11:13:26;;;;;;;126.38;57.20;;;;;;;;;;6257971;28;20080;-65
2022/02/06 11:16:29;;;;;;;122.65;56.88;;;;;;;;;;6256540;28;20057;-65
2022/02/06 11:19:30;;;;;;;131.52;59.00;;;;;;;;;;6254656;28;20137;-65
2022/02/06 11:22:32;;;;;;;127.10;56.75;;;;;;;;;;6257326;28;20040;-64
2022/02/06 11:25:36;;;;;;;130.23;57.63;;;;;;;;;;6254437;28;20176;-65
2022/02/06 11:28:38;;;;;;;120.72;55.67;;;;;;;;;;6261709;28;20170;-65
2022/02/06 11:31:40;;;;;;;120.93;54.65;;;;;;;;;;6251842;28;20146;-64
2022/02/06 11:34:43;;;;;;;128.98;55.17;;;;;;;;;;6256307;28;20183;-65
2022/02/06 11:44:48;;;;;;;125.70;57.17;;;;;;;;;;6258633;28;20444;-65
2022/02/06 11:47:53;;;;;;;126.50;54.97;;;;;;;;;;6247190;28;20094;-64
2022/02/06 11:50:55;;;;;;;117.05;55.20;;;;;;;;;;6246510;28;20120;-67
2022/02/06 11:53:57;;;;;;;126.70;54.75;;;;;;;;;;6249025;28;20136;-65
2022/02/06 11:57:22;;;;;;;106.90;51.90;;;;;;;;;;6255991;28;20132;-64
2022/02/06 12:00:24;;;;;;;111.07;52.75;;;;;;;;;;6251865;28;20107;-66
2022/02/06 12:03:26;;;;;;;115.35;51.97;;;;;;;;;;6252939;28;20497;-64
2022/02/06 12:06:30;;;;;;;107.88;52.75;;;;;;;;;;6258217;28;20065;-66
2022/02/06 12:09:33;;;;;;;105.47;48.95;;;;;;;;;;6252884;28;20437;-64
2022/02/06 12:12:36;;;;;;;101.65;51.33;;;;;;;;;;6256089;28;20520;-65
2022/02/06 12:15:49;;;;;;;97.68;50.60;;;;;;;;;;6252066;28;20489;-66
2022/02/06 12:18:51;;;;;;;109.30;52.13;;;;;;;;;;6254381;28;20047;-65
2022/02/06 12:21:53;;;;;;;95.53;48.60;;;;;;;;;;6253823;28;20154;-65
2022/02/06 12:25:35;;;;;;;106.22;52.42;;;;;;;;;;6259529;28;20126;-65
2022/02/06 12:28:42;;;;;;;101.50;50.20;;;;;;;;;;6255775;28;20135;-65
2022/02/06 12:31:58;;;;;;;101.68;50.53;;;;;;;;;;6250579;28;20452;-65
2022/02/06 12:38:19;;;;;;;93.78;48.72;;;;;;;;;;6253700;28;20049;-66
2022/02/06 12:41:24;;;;;;;95.80;49.05;;;;;;;;;;6260778;28;20127;-65
2022/02/06 12:44:29;;;;;;;96.50;50.63;;;;;;;;;;6257888;28;20568;-64
2022/02/06 12:47:31;;;;;;;91.57;48.03;;;;;;;;;;6259407;28;20199;-65
2022/02/06 12:50:35;;;;;;;93.40;48.08;;;;;;;;;;6253185;28;20506;-65
2022/02/06 12:53:36;;;;;;;94.40;49.42;;;;;;;;;;6255590;28;20176;-65
2022/02/06 12:56:39;;;;;;;95.55;48.05;;;;;;;;;;6258918;28;20130;-65
2022/02/06 12:59:44;;;;;;;90.82;49.20;;;;;;;;;;6251182;28;20056;-65
2022/02/06 13:02:45;;;;;;;87.93;47.88;;;;;;;;;;6257617;28;20075;-64
2022/02/06 13:05:55;;;;;;;97.18;51.25;;;;;;;;;;6251657;28;20610;-64
2022/02/06 13:08:57;;;;;;;95.07;50.05;;;;;;;;;;6262344;28;20548;-64
2022/02/06 13:12:05;;;;;;;92.53;48.47;;;;;;;;;;6261901;28;20041;-65
2022/02/06 13:15:39;;;;;;;95.57;48.65;;;;;;;;;;6261399;28;20045;-64
2022/02/06 13:19:09;;;;;;;92.82;48.38;;;;;;;;;;6258083;28;20045;-65
2022/02/06 13:22:26;;;;;;;95.75;50.05;;;;;;;;;;6261568;28;20072;-65
2022/02/06 13:28:55;;;;;;;95.10;49.53;;;;;;;;;;6258049;28;20070;-64
2022/02/06 13:32:18;;;;;;;91.30;51.70;;;;;;;;;;6257971;28;20045;-63
2022/02/06 13:35:32;;;;;;;99.45;51.95;;;;;;;;;;6260603;28;20397;-66
2022/02/06 13:38:34;;;;;;;96.57;51.97;;;;;;;;;;6263271;28;20045;-64
2022/02/06 13:41:36;;;;;;;96.63;52.05;;;;;;;;;;6259635;28;20064;-65
2022/02/06 13:44:37;;;;;;;96.82;51.47;;;;;;;;;;6258101;28;20172;-64
2022/02/06 13:47:41;;;;;;;97.47;50.83;;;;;;;;;;6255259;28;20132;-65
2022/02/06 13:50:47;;;;;;;96.35;51.58;;;;;;;;;;6255420;28;20045;-65
2022/02/06 13:53:56;;;;;;;98.03;53.25;;;;;;;;;;6259542;28;20196;-66
2022/02/06 13:57:01;;;;;;;93.45;50.38;;;;;;;;;;6258616;28;20045;-66
2022/02/06 14:00:10;;;;;;;101.85;52.90;;;;;;;;;;6261317;28;20056;-65
2022/02/06 14:03:13;;;;;;;92.00;51.55;;;;;;;;;;6257867;28;20132;-64
2022/02/06 14:06:17;;;;;;;90.22;51.60;;;;;;;;;;6256728;28;20458;-64
2022/02/06 14:09:27;;;;;;;;;;;;;;;;;;6256310;28;20079;-64
2022/02/06 14:12:28;;;;;;;97.07;50.72;;;;;;;;;;6250282;28;19956;-63
2022/02/06 14:15:30;;;;;;;92.93;50.15;;;;;;;;;;6260011;28;20063;-63
2022/02/06 14:18:35;;;;;;;93.07;52.63;;;;;;;;;;6253105;28;20045;-66
2022/02/06 14:21:42;;;;;;;102.10;53.33;;;;;;;;;;6253480;28;20187;-65
2022/02/06 14:24:51;;;;;;;92.70;52.45;;;;;;;;;;6257735;28;20508;-66
2022/02/06 14:27:52;;;;;;;84.30;48.53;;;;;;;;;;6263448;28;20179;-65
2022/02/06 14:30:54;;;;;;;94.95;52.70;;;;;;;;;;6261325;28;20064;-64
2022/02/06 14:34:15;;;;;;;93.82;52.58;;;;;;;;;;6257508;28;20053;-67
2022/02/06 14:37:18;;;;;;;89.50;50.70;;;;;;;;;;6261932;28;20480;-66
2022/02/06 14:40:36;;;;;;;91.45;52.90;;;;;;;;;;6261526;28;20053;-69
2022/02/06 14:43:39;;;;;;;95.38;54.15;;;;;;;;;;6261553;28;20045;-66
2022/02/06 14:46:41;;;;;;;97.63;53.17;;;;;;;;;;6264556;28;20428;-64
2022/02/06 14:49:44;;;;;;;92.85;53.53;;;;;;;;;;6261485;28;20140;-66
2022/02/06 14:52:46;;;;;;;95.15;51.65;;;;;;;;;;6258512;28;20056;-66
2022/02/06 14:55:49;;;;;;;101.75;54.70;;;;;;;;;;6256256;28;20131;-66
2022/02/06 14:58:51;;;;;;;88.63;51.28;;;;;;;;;;6254482;28;20047;-66
2022/02/06 15:01:53;;;;;;;90.38;52.10;;;;;;;;;;6267584;28;20124;-66
2022/02/06 15:04:56;;;;;;;88.07;51.55;;;;;;;;;;6265914;28;20056;-66
2022/02/06 15:07:58;;;;;;;94.30;50.63;;;;;;;;;;6264171;28;20441;-66
2022/02/06 15:10:59;;;;;;;93.07;52.42;;;;;;;;;;6260220;28;20089;-65
2022/02/06 15:14:01;;;;;;;91.78;51.85;;;;;;;;;;6260943;28;20134;-65
2022/02/06 15:17:03;;;;;;;89.22;50.05;;;;;;;;;;6255894;28;20511;-66
2022/02/06 15:20:08;;;;;;;95.85;50.88;;;;;;;;;;6255208;28;20052;-65
2022/02/06 15:23:09;;;;;;;93.10;51.40;;;;;;;;;;6258531;28;20056;-66
2022/02/06 15:26:12;;;;;;;90.07;50.47;;;;;;;;;;6262631;28;20080;-66
2022/02/06 15:29:13;;;;;;;90.43;52.60;;;;;;;;;;6254424;28;20131;-65
2022/02/06 15:32:17;;;;;;;93.47;51.20;;;;;;;;;;6257938;28;20092;-66
2022/02/06 15:35:20;;;;;;;89.80;50.92;;;;;;;;;;6256557;28;20112;-65
2022/02/06 15:38:25;;;;;;;95.40;51.30;;;;;;;;;;6256388;28;20128;-67
2022/02/06 15:41:27;;;;;;;97.28;53.35;;;;;;;;;;6254514;28;20174;-66
2022/02/06 15:44:28;;;;;;;95.82;52.80;;;;;;;;;;6262175;28;20442;-65
2022/02/06 15:47:30;;;;;;;95.60;53.75;;;;;;;;;;6254146;28;20378;-65
2022/02/06 15:50:33;;;;;;;99.07;53.80;;;;;;;;;;6256233;28;20146;-66
2022/02/06 15:53:35;;;;;;;109.55;56.10;;;;;;;;;;6255379;28;20445;-66
2022/02/06 15:56:37;;;;;;;104.47;55.50;;;;;;;;;;6256934;28;20049;-65
2022/02/06 15:59:39;;;;;;;104.10;55.58;;;;;;;;;;6253921;28;20131;-65
2022/02/06 16:02:40;;;;;;;110.15;56.83;;;;;;;;;;6255622;28;20114;-65
2022/02/06 16:05:43;;;;;;;108.28;55.80;;;;;;;;;;6258309;28;20056;-65
2022/02/06 16:08:45;;;;;;;115.25;58.38;;;;;;;;;;6255517;28;20134;-66
2022/02/06 16:11:46;;;;;;;105.70;58.70;;;;;;;;;;6252399;28;20052;-66
2022/02/06 16:14:48;;;;;;;122.15;60.50;;;;;;;;;;6254247;28;20077;-65
2022/02/06 16:17:50;;;;;;;122.80;60.45;;;;;;;;;;6258697;28;20174;-66
2022/02/06 16:20:52;;;;;;;118.72;61.45;;;;;;;;;;6257849;28;20115;-64
2022/02/06 16:23:55;;;;;;;131.43;63.45;;;;;;;;;;6257943;28;20416;-66
2022/02/06 16:26:57;;;;;;;126.05;62.35;;;;;;;;;;6258959;28;20124;-68
2022/02/06 16:29:59;;;;;;;136.77;67.53;;;;;;;;;;6255588;28;20122;-65
2022/02/06 16:33:01;;;;;;;134.50;66.72;;;;;;;;;;6251929;28;20041;-65
2022/02/06 16:36:04;;;;;;;135.55;65.35;;;;;;;;;;6253372;28;20132;-66
2022/02/06 16:39:05;;;;;;;136.48;67.13;;;;;;;;;;6251973;28;20128;-65
2022/02/06 16:42:07;;;;;;;142.70;68.43;;;;;;;;;;6251191;28;20510;-66
2022/02/06 16:45:09;;;;;;;141.93;67.95;;;;;;;;;;6256447;28;20129;-66
2022/02/06 16:48:11;;;;;;;141.80;67.80;;;;;;;;;;6253678;28;20187;-65
2022/02/06 16:51:14;;;;;;;145.93;70.07;;;;;;;;;;6251763;28;20069;-66
2022/02/06 16:54:15;;;;;;;141.77;68.95;;;;;;;;;;6250558;28;20073;-65
2022/02/06 16:57:17;;;;;;;138.45;69.07;;;;;;;;;;6254347;28;20133;-65
2022/02/06 17:00:19;;;;;;;132.48;64.97;;;;;;;;;;6252710;28;20081;-65
2022/02/06 17:03:20;;;;;;;133.43;64.57;;;;;;;;;;6253051;28;20075;-65
2022/02/06 17:06:23;;;;;;;143.23;68.00;;;;;;;;;;6253884;28;20045;-65
2022/02/06 17:09:25;;;;;;;133.55;66.30;;;;;;;;;;6260038;28;20140;-65
2022/02/06 17:12:26;;;;;;;142.82;69.47;;;;;;;;;;6255810;28;20100;-65
2022/02/06 17:15:28;;;;;;;135.23;66.93;;;;;;;;;;6257407;28;20450;-65
2022/02/06 17:18:30;;;;;;;145.10;68.97;;;;;;;;;;6252371;28;20414;-65
2022/02/06 17:21:33;;;;;;;142.68;70.13;;;;;;;;;;6252122;28;20053;-66
2022/02/06 17:24:34;;;;;;;151.43;71.38;;;;;;;;;;6250084;28;20341;-65
2022/02/06 17:27:36;;;;;;;145.75;67.05;;;;;;;;;;6256563;28;20519;-66
2022/02/06 17:30:39;;;;;;;147.65;69.32;;;;;;;;;;6259778;28;20125;-65
2022/02/06 17:33:41;;;;;;;143.97;71.67;;;;;;;;;;6255688;28;20049;-65
2022/02/06 17:36:44;;;;;;;134.07;65.25;;;;;;;;;;6253416;28;20132;-66
2022/02/06 17:39:46;;;;;;;134.02;65.15;;;;;;;;;;6251885;28;20053;-65
2022/02/06 17:42:53;;;;;;;125.03;60.95;;;;;;;;;;6256124;28;20124;-65
2022/02/06 17:45:56;;;;;;;125.50;60.97;;;;;;;;;;6249775;28;20065;-65
2022/02/06 17:48:57;;;;;;;134.60;64.65;;;;;;;;;;6248172;28;20041;-65
2022/02/06 17:52:00;;;;;;;124.80;61.47;;;;;;;;;;6251858;28;20056;-66
2022/02/06 17:55:02;;;;;;;122.45;59.03;;;;;;;;;;6260213;28;20075;-66
2022/02/06 17:58:04;;;;;;;122.00;58.83;;;;;;;;;;6259206;28;20140;-65
2022/02/06 18:01:05;;;;;;;122.60;59.70;;;;;;;;;;6257453;28;20041;-65
2022/02/06 18:04:07;;;;;;;124.60;58.80;;;;;;;;;;6259679;28;20183;-65
2022/02/06 18:07:10;;;;;;;125.88;59.75;;;;;;;;;;6253230;28;20459;-65
2022/02/06 18:10:12;;;;;;;122.22;58.15;;;;;;;;;;6255001;28;20060;-65
2022/02/06 18:13:14;;;;;;;113.15;58.08;;;;;;;;;;6253173;28;20084;-65
2022/02/06 18:16:15;;;;;;;121.70;57.28;;;;;;;;;;6261223;28;20140;-65
2022/02/06 18:19:17;;;;;;;126.55;59.40;;;;;;;;;;6260030;28;20065;-65
2022/02/06 18:22:21;;;;;;;121.68;58.45;;;;;;;;;;6259279;28;20079;-66
2022/02/06 18:25:23;;;;;;;;;;;;;;;;;;6265743;28;20098;-66
2022/02/06 18:28:25;;;;;;;123.90;58.60;;;;;;;;;;6259422;28;19932;-65
2022/02/06 18:31:27;;;;;;;117.80;58.17;;;;;;;;;;6253727;28;20057;-66
2022/02/06 18:34:29;;;;;;;115.15;56.53;;;;;;;;;;6255406;28;20171;-65
2022/02/06 18:37:32;;;;;;;121.78;58.88;;;;;;;;;;6253553;28;20116;-65
2022/02/06 18:40:33;;;;;;;116.10;57.83;;;;;;;;;;6260895;28;20168;-66
2022/02/06 18:43:35;;;;;;;116.53;57.25;;;;;;;;;;6257474;28;20064;-67
2022/02/06 18:46:37;;;;;;;124.80;58.30;;;;;;;;;;6259592;28;20488;-68
2022/02/06 18:49:39;;;;;;;120.82;58.28;;;;;;;;;;6260277;28;20103;-67
2022/02/06 18:52:42;;;;;;;120.35;58.65;;;;;;;;;;6262119;28;20164;-65
2022/02/06 18:55:44;;;;;;;118.10;59.57;;;;;;;;;;6253406;28;20096;-65
2022/02/06 18:58:45;;;;;;;123.38;57.92;;;;;;;;;;6253661;28;20044;-66
2022/02/06 19:01:47;;;;;;;119.18;56.92;;;;;;;;;;6256237;28;20124;-64
2022/02/06 19:04:48;;;;;;;111.80;58.88;;;;;;;;;;6254906;28;20080;-65
2022/02/06 19:07:51;;;;;;;116.03;58.38;;;;;;;;;;6259762;28;20087;-65